createdAt,value
2018-08-28T09:27:10.845Z,14561.28
2018-08-28T09:28:12.344Z,15206.40
2018-08-28T09:29:12.533Z,15114.24
2018-08-28T09:30:12.671Z,14653.44
2018-08-28T09:31:13.012Z,14561.28
2018-08-28T09:32:12.145Z,14376.96
2018-08-28T09:33:13.607Z,14100.48
2018-08-28T09:34:14.078Z,14192.64
2018-08-28T09:35:14.534Z,14745.60
2018-08-28T09:36:13.811Z,15390.72
2018-08-28T09:37:15.035Z,15759.36
2018-08-28T09:38:15.249Z,15575.04
2018-08-28T09:39:15.399Z,15759.36
2018-08-28T09:40:15.462Z,16496.64
2018-08-28T09:41:16.443Z,17141.76
2018-08-28T09:42:16.672Z,18063.36
2018-08-28T09:43:16.871Z,18984.96
2018-08-28T09:44:17.465Z,24514.56
2018-08-28T09:45:17.772Z,18984.96
2018-08-28T09:46:17.895Z,18247.68
2018-08-28T09:47:18.015Z,18432.00
2018-08-28T09:48:18.358Z,17326.08
2018-08-28T09:49:17.457Z,16220.16
2018-08-28T09:50:18.655Z,16220.16
2018-08-28T09:51:18.682Z,16404.48
2018-08-28T09:52:19.054Z,16680.96
2018-08-28T09:53:19.412Z,18339.84
2018-08-28T09:54:19.759Z,23132.16
2018-08-28T09:55:22.978Z,35573.76
2018-08-28T09:56:20.155Z,35389.44
2018-08-28T09:57:20.141Z,46448.64
2018-08-28T09:58:20.673Z,50503.68
2018-08-28T09:59:21.039Z,51240.96
2018-08-28T10:00:21.252Z,51240.96
2018-08-28T10:01:21.438Z,50135.04
2018-08-28T10:02:21.685Z,50503.68
2018-08-28T10:03:21.908Z,51978.24
2018-08-28T10:04:22.091Z,33730.56
2018-08-28T10:05:22.308Z,49029.12
2018-08-28T10:06:22.699Z,20367.36
2018-08-28T10:07:23.026Z,17233.92
2018-08-28T10:08:23.179Z,16865.28
2018-08-28T10:09:23.406Z,19169.28
2018-08-28T10:10:23.682Z,20459.52
2018-08-28T10:11:23.767Z,39628.80
2018-08-28T10:12:24.488Z,48660.48
2018-08-28T10:13:24.727Z,28385.28
2018-08-28T10:13:33.492Z,27832.32
2018-08-28T10:14:33.984Z,36679.68
2018-08-28T10:15:34.585Z,56033.28
2018-08-28T10:16:34.836Z,56770.56
2018-08-28T10:17:35.095Z,53452.80
2018-08-28T10:18:35.285Z,51978.24
2018-08-28T10:19:35.573Z,50872.32
2018-08-28T10:20:36.179Z,50872.32
2018-08-28T10:21:36.332Z,16404.48
2018-08-28T10:22:36.428Z,15851.52
2018-08-28T10:23:36.620Z,15298.56
2018-08-28T10:24:36.834Z,15943.68
2018-08-28T10:25:37.076Z,16773.12
2018-08-28T10:26:37.735Z,17694.72
2018-08-28T10:27:37.895Z,25251.84
2018-08-28T10:28:38.030Z,30228.48
2018-08-28T10:29:38.306Z,47001.60
2018-08-28T10:30:38.638Z,54190.08
2018-08-28T10:31:38.887Z,54927.36
2018-08-28T10:32:39.114Z,54190.08
2018-08-28T10:33:40.393Z,52715.52
2018-08-28T10:34:39.788Z,50872.32
2018-08-28T10:35:40.106Z,50503.68
2018-08-28T10:36:39.586Z,50872.32
2018-08-28T10:37:39.669Z,50503.68
2018-08-28T10:38:42.077Z,50872.32
2018-08-28T10:39:40.759Z,52715.52
2018-08-28T10:40:42.531Z,53452.80
2018-08-28T10:41:42.129Z,49029.12
2018-08-28T10:42:42.499Z,53084.16
2018-08-28T10:43:44.054Z,53084.16
2018-08-28T10:44:44.707Z,52715.52
2018-08-28T10:45:45.327Z,53821.44
2018-08-28T10:46:46.158Z,49397.76
2018-08-28T10:47:45.383Z,18063.36
2018-08-28T10:48:46.790Z,35573.76
2018-08-28T10:49:47.002Z,53452.80
2018-08-28T10:50:47.207Z,35942.40
2018-08-28T10:51:47.623Z,29306.88
2018-08-28T10:52:47.797Z,39444.48
2018-08-28T10:53:46.921Z,19169.28
2018-08-28T10:54:48.163Z,17326.08
2018-08-28T10:55:48.377Z,17049.60
2018-08-28T10:56:48.485Z,17141.76
2018-08-28T10:57:47.640Z,16588.80
2018-08-28T10:58:49.054Z,16680.96
2018-08-28T10:59:48.067Z,16588.80
2018-08-28T11:00:49.322Z,26542.08
2018-08-28T11:01:49.997Z,28016.64
2018-08-28T11:02:50.200Z,53821.44
2018-08-28T11:03:50.317Z,53452.80
2018-08-28T11:03:59.332Z,54190.08
2018-08-28T11:04:59.687Z,54558.72
2018-08-28T11:06:00.104Z,54558.72
2018-08-28T11:07:00.289Z,53452.80
2018-08-28T11:08:00.752Z,53084.16
2018-08-28T11:09:01.006Z,53452.80
2018-08-28T11:10:01.187Z,52715.52
2018-08-28T11:11:01.460Z,52346.88
2018-08-28T11:12:01.768Z,52346.88
2018-08-28T11:13:02.368Z,52346.88
2018-08-28T11:14:02.581Z,52715.52
2018-08-28T11:15:02.729Z,52715.52
2018-08-28T11:16:03.008Z,53084.16
2018-08-28T11:17:02.135Z,52346.88
2018-08-28T11:18:03.480Z,51978.24
2018-08-28T11:19:03.640Z,52715.52
2018-08-28T11:20:03.880Z,52715.52
2018-08-28T11:21:04.054Z,52346.88
2018-08-28T11:22:04.479Z,52715.52
2018-08-28T11:23:04.602Z,52715.52
2018-08-28T11:24:04.045Z,53084.16
2018-08-28T11:25:05.187Z,53452.80
2018-08-28T11:26:05.894Z,53452.80
2018-08-28T11:27:06.357Z,53084.16
2018-08-28T11:28:07.060Z,49029.12
2018-08-28T11:29:06.357Z,50135.04
2018-08-28T11:30:07.570Z,41103.36
2018-08-28T11:31:08.187Z,50135.04
2018-08-28T11:32:08.564Z,53452.80
2018-08-28T11:33:08.963Z,53084.16
2018-08-28T11:34:08.037Z,16588.80
2018-08-28T11:35:09.175Z,49029.12
2018-08-28T11:36:09.329Z,52715.52
2018-08-28T11:37:09.778Z,52346.88
2018-08-28T11:38:11.195Z,40366.08
2018-08-28T11:39:10.560Z,53821.44
2018-08-28T11:40:11.917Z,54558.72
2018-08-28T11:41:11.774Z,54190.08
2018-08-28T11:42:12.338Z,53452.80
2018-08-28T11:43:12.173Z,51978.24
2018-08-28T11:44:12.039Z,52715.52
2018-08-28T11:45:13.091Z,51609.60
2018-08-28T11:46:13.712Z,52346.88
2018-08-28T11:47:14.268Z,52715.52
2018-08-28T11:48:13.534Z,52346.88
2018-08-28T11:48:22.540Z,52346.88
2018-08-28T11:49:22.895Z,52715.52
2018-08-28T11:50:23.026Z,53452.80
2018-08-28T11:51:23.158Z,53452.80
2018-08-28T11:52:23.291Z,49397.76
2018-08-28T11:53:23.641Z,42762.24
2018-08-28T11:54:23.072Z,50503.68
2018-08-28T11:55:24.677Z,50872.32
2018-08-28T11:56:24.692Z,50872.32
2018-08-28T11:57:25.026Z,50872.32
2018-08-28T11:58:25.176Z,50872.32
2018-08-28T11:59:25.342Z,51609.60
2018-08-28T12:00:25.843Z,51978.24
2018-08-28T12:01:26.038Z,52346.88
2018-08-28T12:02:26.212Z,52715.52
2018-08-28T12:03:26.746Z,53084.16
2018-08-28T12:04:25.997Z,53084.16
2018-08-28T12:05:26.591Z,53452.80
2018-08-28T12:06:26.871Z,53452.80
2018-08-28T12:07:28.201Z,53084.16
2018-08-28T12:08:27.305Z,52715.52
2018-08-28T12:09:27.878Z,51978.24
2018-08-28T12:10:29.510Z,51609.60
2018-08-28T12:11:29.734Z,51240.96
2018-08-28T12:12:30.029Z,50135.04
2018-08-28T12:13:31.005Z,50503.68
2018-08-28T12:14:31.067Z,50872.32
2018-08-28T12:15:31.379Z,50872.32
2018-08-28T12:16:31.952Z,51240.96
2018-08-28T12:17:32.437Z,51240.96
2018-08-28T12:18:32.588Z,51240.96
2018-08-28T12:19:32.959Z,50872.32
2018-08-28T12:20:32.104Z,50872.32
2018-08-28T12:21:32.303Z,50503.68
2018-08-28T12:22:33.532Z,50503.68
2018-08-28T12:23:33.716Z,50135.04
2018-08-28T12:24:34.425Z,50135.04
2018-08-28T12:25:34.650Z,49397.76
2018-08-28T12:26:34.847Z,49397.76
2018-08-28T12:27:35.530Z,49766.40
2018-08-28T12:28:35.748Z,49766.40
2018-08-28T12:29:36.014Z,50503.68
2018-08-28T12:30:35.187Z,50503.68
2018-08-28T12:31:36.462Z,49766.40
2018-08-28T12:32:36.661Z,49766.40
2018-08-28T12:33:36.850Z,49766.40
2018-08-28T12:34:36.972Z,49397.76
2018-08-28T12:35:37.268Z,49397.76
2018-08-28T12:36:37.830Z,49029.12
2018-08-28T12:37:37.611Z,48291.84
2018-08-28T12:38:37.835Z,48291.84
2018-08-28T12:39:38.113Z,48291.84
2018-08-28T12:39:46.945Z,48291.84
2018-08-28T12:40:47.394Z,47923.20
2018-08-28T12:41:47.717Z,47554.56
2018-08-28T12:42:48.358Z,47185.92
2018-08-28T12:43:48.821Z,47554.56
2018-08-28T12:44:49.572Z,47923.20
2018-08-28T12:45:49.906Z,48291.84
2018-08-28T12:46:50.208Z,47554.56
2018-08-28T12:47:50.609Z,47923.20
2018-08-28T12:48:51.266Z,48291.84
2018-08-28T12:49:51.807Z,47554.56
2018-08-28T12:50:52.243Z,47185.92
2018-08-28T12:51:52.533Z,47185.92
2018-08-28T12:52:52.867Z,47185.92
2018-08-28T12:53:53.157Z,47001.60
2018-08-28T12:54:53.527Z,47001.60
2018-08-28T12:55:52.792Z,46632.96
2018-08-28T12:56:54.115Z,46632.96
2018-08-28T12:57:54.481Z,46264.32
2018-08-28T12:58:55.047Z,46448.64
2018-08-28T12:59:55.328Z,46448.64
2018-08-28T13:00:55.805Z,46817.28
2018-08-28T13:01:55.128Z,46632.96
2018-08-28T13:02:56.449Z,45895.68
2018-08-28T13:03:56.718Z,43683.84
2018-08-28T13:04:57.280Z,43868.16
2018-08-28T13:05:56.529Z,42762.24
2018-08-28T13:06:58.160Z,42946.56
2018-08-28T13:07:58.541Z,42762.24
2018-08-28T13:08:59.394Z,43130.88
2018-08-28T13:09:59.851Z,42946.56
2018-08-28T13:11:00.406Z,42946.56
2018-08-28T13:12:00.945Z,42577.92
2018-08-28T13:13:01.224Z,42762.24
2018-08-28T13:14:01.552Z,39997.44
2018-08-28T13:15:02.074Z,42209.28
2018-08-28T13:16:01.669Z,41840.64
2018-08-28T13:17:03.061Z,40919.04
2018-08-28T13:18:02.329Z,43130.88
2018-08-28T13:19:03.680Z,43315.20
2018-08-28T13:20:04.146Z,42946.56
2018-08-28T13:21:03.385Z,42577.92
2018-08-28T13:22:04.647Z,42209.28
2018-08-28T13:23:04.948Z,42024.96
2018-08-28T13:24:05.276Z,41472.00
2018-08-28T13:25:05.795Z,41287.68
2018-08-28T13:26:06.304Z,41103.36
2018-08-28T13:27:05.479Z,40919.04
2018-08-28T13:28:06.828Z,40550.40
2018-08-28T13:29:07.160Z,40734.72
2018-08-28T13:29:15.995Z,40550.40
2018-08-28T13:30:16.436Z,40734.72
2018-08-28T13:31:17.157Z,40550.40
2018-08-28T13:32:16.698Z,39997.44
2018-08-28T13:33:18.954Z,39997.44
2018-08-28T13:34:18.077Z,39444.48
2018-08-28T13:35:18.602Z,39628.80
2018-08-28T13:36:18.982Z,39628.80
2018-08-28T13:37:19.438Z,39075.84
2018-08-28T13:38:19.720Z,37969.92
2018-08-28T13:39:20.030Z,38154.24
2018-08-28T13:40:20.423Z,37785.60
2018-08-28T13:41:19.767Z,37969.92
2018-08-28T13:42:21.177Z,37601.28
2018-08-28T13:43:20.437Z,37785.60
2018-08-28T13:44:21.699Z,38154.24
2018-08-28T13:45:22.132Z,38154.24
2018-08-28T13:46:22.428Z,38338.56
2018-08-28T13:47:22.805Z,38338.56
2018-08-28T13:48:23.096Z,38522.88
2018-08-28T13:49:22.367Z,37785.60
2018-08-28T13:50:23.665Z,37232.64
2018-08-28T13:51:23.639Z,38154.24
2018-08-28T13:52:23.925Z,37969.92
2018-08-28T13:53:24.192Z,37969.92
2018-08-28T13:54:24.878Z,37416.96
2018-08-28T13:55:24.183Z,36864.00
2018-08-28T13:56:25.468Z,36679.68
2018-08-28T13:57:25.735Z,36126.72
2018-08-28T13:58:26.070Z,36864.00
2018-08-28T13:59:26.395Z,36311.04
2018-08-28T14:00:26.735Z,36126.72
2018-08-28T14:01:27.189Z,36126.72
2018-08-28T14:02:27.508Z,35942.40
2018-08-28T14:03:27.832Z,35942.40
2018-08-28T14:04:28.192Z,35573.76
2018-08-28T14:05:28.621Z,35758.08
2018-08-28T14:06:28.871Z,35758.08
2018-08-28T14:07:29.249Z,35942.40
2018-08-28T14:08:29.559Z,35758.08
2018-08-28T14:09:29.935Z,35389.44
2018-08-28T14:10:30.257Z,35205.12
2018-08-28T14:11:31.513Z,35020.80
2018-08-28T14:12:31.258Z,34836.48
2018-08-28T14:13:31.867Z,34836.48
2018-08-28T14:14:31.137Z,34836.48
2018-08-28T14:15:32.973Z,34652.16
2018-08-28T14:16:33.307Z,34283.52
2018-08-28T14:17:33.710Z,34467.84
2018-08-28T14:17:42.439Z,34099.20
2018-08-28T14:18:43.638Z,34283.52
2018-08-28T14:19:44.304Z,34467.84
2018-08-28T14:20:43.692Z,34467.84
2018-08-28T14:21:45.022Z,34283.52
2018-08-28T14:22:45.350Z,33914.88
2018-08-28T14:23:45.674Z,33546.24
2018-08-28T14:24:46.104Z,33546.24
2018-08-28T14:25:46.714Z,33361.92
2018-08-28T14:26:46.870Z,32624.64
2018-08-28T14:27:47.307Z,32993.28
2018-08-28T14:28:47.567Z,32993.28
2018-08-28T14:29:46.734Z,32624.64
2018-08-28T14:30:48.505Z,32624.64
2018-08-28T14:31:48.829Z,32808.96
2018-08-28T14:32:48.430Z,32624.64
2018-08-28T14:33:50.062Z,32440.32
2018-08-28T14:34:50.344Z,32256.00
2018-08-28T14:35:50.643Z,32071.68
2018-08-28T14:36:50.945Z,31703.04
2018-08-28T14:37:51.471Z,31703.04
2018-08-28T14:38:52.139Z,31518.72
2018-08-28T14:39:52.594Z,31334.40
2018-08-28T14:40:52.954Z,31150.08
2018-08-28T14:41:53.326Z,30965.76
2018-08-28T14:42:53.584Z,30781.44
2018-08-28T14:43:53.969Z,30412.80
2018-08-28T14:44:53.620Z,29859.84
2018-08-28T14:45:55.083Z,29491.20
2018-08-28T14:46:55.453Z,29491.20
2018-08-28T14:47:55.929Z,29122.56
2018-08-28T14:48:56.471Z,29122.56
2018-08-28T14:49:56.984Z,28753.92
2018-08-28T14:50:56.143Z,28753.92
2018-08-28T14:51:57.610Z,28569.60
2018-08-28T14:52:57.989Z,28569.60
2018-08-28T14:53:58.290Z,27648.00
2018-08-28T14:54:58.680Z,28016.64
2018-08-28T14:55:59.001Z,27832.32
2018-08-28T14:56:58.289Z,27832.32
2018-08-28T14:57:59.810Z,27648.00
2018-08-28T14:58:59.190Z,27463.68
2018-08-28T15:00:00.849Z,27463.68
2018-08-28T15:01:01.168Z,27279.36
2018-08-28T15:02:01.535Z,27279.36
2018-08-28T15:03:01.849Z,27279.36
2018-08-28T15:04:02.364Z,27095.04
2018-08-28T15:05:01.686Z,26910.72
2018-08-28T15:06:02.998Z,26542.08
2018-08-28T15:07:03.482Z,26542.08
2018-08-28T15:08:02.969Z,26173.44
2018-08-28T15:08:11.058Z,26173.44
2018-08-28T15:09:12.555Z,25620.48
2018-08-28T15:10:13.034Z,25436.16
2018-08-28T15:11:12.376Z,25436.16
2018-08-28T15:12:13.583Z,25436.16
2018-08-28T15:13:13.967Z,25436.16
2018-08-28T15:14:14.348Z,25251.84
2018-08-28T15:15:14.735Z,25067.52
2018-08-28T15:16:15.221Z,25067.52
2018-08-28T15:17:15.661Z,24883.20
2018-08-28T15:18:16.201Z,24514.56
2018-08-28T15:19:16.562Z,24145.92
2018-08-28T15:20:16.821Z,23592.96
2018-08-28T15:21:17.137Z,23040.00
2018-08-28T15:22:16.467Z,22855.68
2018-08-28T15:23:17.994Z,22763.52
2018-08-28T15:24:18.332Z,22579.20
2018-08-28T15:25:18.690Z,22394.88
2018-08-28T15:26:19.036Z,21565.44
2018-08-28T15:27:19.464Z,21657.60
2018-08-28T15:28:18.700Z,21381.12
2018-08-28T15:29:21.018Z,21104.64
2018-08-28T15:30:20.751Z,21012.48
2018-08-28T15:31:19.948Z,21012.48
2018-08-28T15:32:21.209Z,20828.16
2018-08-28T15:33:22.016Z,20459.52
2018-08-28T15:34:22.407Z,20367.36
2018-08-28T15:35:22.675Z,20090.88
2018-08-28T15:36:23.139Z,19814.40
2018-08-28T15:37:23.471Z,19630.08
2018-08-28T15:38:23.975Z,19537.92
2018-08-28T15:39:24.381Z,19169.28
2018-08-28T15:40:24.698Z,18800.64
2018-08-28T15:41:25.040Z,18616.32
2018-08-28T15:42:25.417Z,18432.00
2018-08-28T15:43:25.706Z,18247.68
2018-08-28T15:44:26.011Z,18155.52
2018-08-28T15:45:26.564Z,17971.20
2018-08-28T15:46:26.921Z,17879.04
2018-08-28T15:47:27.240Z,17510.40
2018-08-28T15:48:27.496Z,17049.60
2018-08-28T15:49:27.960Z,16865.28
2018-08-28T15:50:28.241Z,16957.44
2018-08-28T15:51:29.098Z,16773.12
2018-08-28T15:52:28.426Z,16496.64
2018-08-28T15:53:29.732Z,16312.32
2018-08-28T15:54:30.015Z,16128.00
2018-08-28T15:55:30.298Z,15943.68
2018-08-28T15:55:39.259Z,15943.68
2018-08-28T15:56:39.482Z,15759.36
2018-08-28T15:57:39.905Z,15575.04
2018-08-28T15:58:40.207Z,15390.72
2018-08-28T15:59:40.624Z,15298.56
2018-08-28T16:00:41.524Z,15206.40
2018-08-28T16:01:41.813Z,15022.08
2018-08-28T16:02:42.073Z,14745.60
2018-08-28T16:03:42.387Z,14653.44
2018-08-28T16:04:42.855Z,14469.12
2018-08-28T16:05:42.086Z,14192.64
2018-08-28T16:06:43.424Z,13916.16
2018-08-28T16:07:43.886Z,13639.68
2018-08-28T16:08:44.177Z,13363.20
2018-08-28T16:09:44.434Z,12994.56
2018-08-28T16:10:43.726Z,12810.24
2018-08-28T16:11:45.119Z,12625.92
2018-08-28T16:12:45.412Z,12625.92
2018-08-28T16:13:46.366Z,12718.08
2018-08-28T16:14:46.747Z,12625.92
2018-08-28T16:15:47.218Z,12625.92
2018-08-28T16:16:47.628Z,12625.92
2018-08-28T16:17:48.060Z,12441.60
2018-08-28T16:18:48.560Z,11427.84
2018-08-28T16:19:48.861Z,11980.80
2018-08-28T16:20:49.415Z,12072.96
2018-08-28T16:21:49.703Z,11796.48
2018-08-28T16:22:50.129Z,11566.08
2018-08-28T16:23:50.760Z,11335.68
2018-08-28T16:24:49.924Z,11243.52
2018-08-28T16:25:51.231Z,10967.04
2018-08-28T16:26:51.511Z,10828.80
2018-08-28T16:27:51.820Z,10644.48
2018-08-28T16:28:52.073Z,10460.16
2018-08-28T16:29:52.547Z,10368.00
2018-08-28T16:30:51.727Z,10275.84
2018-08-28T16:31:53.002Z,10137.60
2018-08-28T16:32:53.417Z,10045.44
2018-08-28T16:33:53.984Z,9953.28
2018-08-28T16:34:54.674Z,9815.04
2018-08-28T16:35:55.388Z,9676.80
2018-08-28T16:36:54.554Z,9446.40
2018-08-28T16:37:54.833Z,9169.92
2018-08-28T16:38:56.379Z,8985.60
2018-08-28T16:39:56.950Z,8847.36
2018-08-28T16:40:57.291Z,8709.12
2018-08-28T16:41:57.530Z,8524.80
2018-08-28T16:42:57.847Z,8432.64
2018-08-28T16:43:58.148Z,8248.32
2018-08-28T16:44:06.947Z,8248.32
2018-08-28T16:45:08.416Z,8110.08
2018-08-28T16:46:08.692Z,8017.92
2018-08-28T16:47:09.225Z,7833.60
2018-08-28T16:48:09.588Z,7603.20
2018-08-28T16:49:09.985Z,7418.88
2018-08-28T16:50:10.342Z,7280.64
2018-08-28T16:51:09.665Z,7096.32
2018-08-28T16:52:10.973Z,6958.08
2018-08-28T16:53:11.243Z,6912.00
2018-08-28T16:54:11.639Z,6819.84
2018-08-28T16:55:11.865Z,6773.76
2018-08-28T16:56:12.378Z,6727.68
2018-08-28T16:57:12.710Z,6635.52
2018-08-28T16:58:13.641Z,6497.28
2018-08-28T16:59:14.097Z,6312.96
2018-08-28T17:00:14.352Z,6128.64
2018-08-28T17:01:14.709Z,5944.32
2018-08-28T17:02:13.966Z,5829.12
2018-08-28T17:03:15.230Z,5713.92
2018-08-28T17:04:15.523Z,5575.68
2018-08-28T17:05:15.816Z,5437.44
2018-08-28T17:06:16.334Z,5253.12
2018-08-28T17:07:17.090Z,4400.64
2018-08-28T17:08:16.295Z,3594.24
2018-08-28T17:09:17.711Z,3801.60
2018-08-28T17:10:18.028Z,4078.08
2018-08-28T17:11:18.278Z,3870.72
2018-08-28T17:12:18.538Z,3686.40
2018-08-28T17:13:17.852Z,3432.96
2018-08-28T17:14:19.110Z,2937.60
2018-08-28T17:15:20.002Z,2880.00
2018-08-28T17:16:20.572Z,2926.08
2018-08-28T17:17:20.849Z,2949.12
2018-08-28T17:18:21.213Z,2822.40
2018-08-28T17:19:21.569Z,2684.16
2018-08-28T17:20:20.859Z,2615.04
2018-08-28T17:21:22.246Z,2568.96
2018-08-28T17:22:22.619Z,2522.88
2018-08-28T17:23:23.571Z,2476.80
2018-08-28T17:24:23.876Z,2430.72
2018-08-28T17:25:24.175Z,2384.64
2018-08-28T17:26:27.525Z,2338.56
2018-08-28T17:27:24.768Z,2292.48
2018-08-28T17:28:25.099Z,2246.40
2018-08-28T17:29:25.682Z,2200.32
2018-08-28T17:30:25.904Z,2154.24
2018-08-28T17:31:25.294Z,2108.16
2018-08-28T17:32:26.993Z,2062.08
2018-08-28T17:33:27.428Z,2016.00
2018-08-28T17:33:36.078Z,2016.00
2018-08-28T17:34:36.637Z,1969.92
2018-08-28T17:35:36.922Z,1923.84
2018-08-28T17:36:36.299Z,1877.76
2018-08-28T17:37:39.236Z,1831.68
2018-08-28T17:38:38.603Z,1785.60
2018-08-28T17:39:40.127Z,1739.52
2018-08-28T17:40:39.788Z,1681.92
2018-08-28T17:41:40.081Z,1635.84
2018-08-28T17:42:40.449Z,1589.76
2018-08-28T17:43:40.245Z,1532.16
2018-08-28T17:44:41.266Z,1486.08
2018-08-28T17:45:40.564Z,1440.00
2018-08-28T17:46:40.853Z,1393.92
2018-08-28T17:47:42.285Z,1347.84
2018-08-28T17:48:43.632Z,1290.24
2018-08-28T17:49:41.968Z,1244.16
2018-08-28T17:50:43.588Z,1186.56
2018-08-28T17:51:43.948Z,1134.72
2018-08-28T17:52:44.061Z,1088.64
2018-08-28T17:53:44.611Z,1048.32
2018-08-28T17:54:44.725Z,1008.00
2018-08-28T17:55:44.910Z,967.68
2018-08-28T17:56:45.191Z,938.88
2018-08-28T17:57:45.728Z,910.08
2018-08-28T17:58:46.020Z,881.28
2018-08-28T17:59:46.441Z,846.72
2018-08-28T18:00:46.682Z,766.08
2018-08-28T18:01:46.977Z,737.28
2018-08-28T18:02:47.630Z,705.60
2018-08-28T18:03:47.472Z,673.92
2018-08-28T18:04:51.270Z,642.24
2018-08-28T18:05:50.095Z,607.68
2018-08-28T18:06:50.904Z,576.00
2018-08-28T18:07:51.228Z,544.32
2018-08-28T18:08:51.535Z,512.64
2018-08-28T18:09:51.976Z,480.96
2018-08-28T18:10:52.356Z,449.28
2018-08-28T18:11:52.737Z,420.48
2018-08-28T18:12:53.108Z,394.56
2018-08-28T18:13:53.452Z,367.20
2018-08-28T18:14:53.737Z,339.84
2018-08-28T18:15:54.710Z,315.36
2018-08-28T18:16:55.105Z,290.88
2018-08-28T18:17:55.456Z,267.84
2018-08-28T18:18:54.649Z,244.80
2018-08-28T18:19:03.659Z,241.92
2018-08-28T18:20:03.864Z,220.32
2018-08-28T18:21:04.714Z,200.16
2018-08-28T18:22:04.171Z,183.60
2018-08-28T18:23:04.298Z,168.48
2018-08-28T18:24:04.571Z,154.08
2018-08-28T18:25:04.965Z,141.12
2018-08-28T18:26:05.309Z,128.16
2018-08-28T18:27:05.913Z,115.92
2018-08-28T18:28:06.285Z,104.40
2018-08-28T18:29:06.625Z,93.60
2018-08-28T18:30:07.282Z,83.52
2018-08-28T18:31:07.696Z,73.80
2018-08-28T18:32:08.103Z,64.80
2018-08-28T18:33:08.432Z,57.24
2018-08-28T18:34:07.723Z,49.68
2018-08-28T18:35:09.074Z,43.38
2018-08-28T18:36:09.352Z,37.26
2018-08-28T18:37:09.690Z,31.86
2018-08-28T18:38:10.064Z,27.36
2018-08-28T18:39:10.109Z,23.40
2018-08-28T18:40:10.507Z,19.89
2018-08-28T18:41:11.063Z,16.74
2018-08-28T18:42:10.340Z,14.04
2018-08-28T18:43:11.739Z,11.70
2018-08-28T18:44:12.097Z,9.68
2018-08-28T18:45:12.453Z,8.06
2018-08-28T18:46:12.308Z,6.70
2018-08-28T18:47:14.050Z,5.58
2018-08-28T18:48:14.053Z,4.68
2018-08-28T18:49:14.724Z,3.83
2018-08-28T18:50:15.042Z,3.24
2018-08-28T18:51:15.442Z,2.65
2018-08-28T18:52:15.856Z,2.25
2018-08-28T18:53:17.564Z,1.89
2018-08-28T18:54:15.689Z,1.62
2018-08-28T18:55:17.262Z,1.35
2018-08-28T18:56:17.619Z,1.12
2018-08-28T18:57:16.835Z,0.86
2018-08-28T18:58:19.174Z,0.76
2018-08-28T18:59:18.205Z,0.63
2018-08-28T19:00:18.489Z,0.54
2018-08-28T19:01:18.887Z,0.45
2018-08-28T19:02:19.246Z,0.36
2018-08-28T19:03:19.790Z,0.31
2018-08-28T19:04:20.162Z,0.27
2018-08-28T19:05:20.475Z,0.22
2018-08-28T19:06:21.675Z,0.18
2018-08-28T19:06:40.641Z,0.18
2018-08-28T19:07:42.855Z,0.14
2018-08-28T19:08:41.215Z,0.14
2018-08-28T19:09:41.522Z,0.09
2018-08-28T19:10:41.863Z,0.05
2018-08-28T19:11:42.145Z,0.05
2018-08-28T19:12:42.508Z,0.05
2018-08-28T19:13:42.837Z,0.05
2018-08-28T19:14:43.171Z,0.05
2018-08-28T19:15:42.778Z,0.05
2018-08-28T19:16:44.101Z,0.05
2018-08-28T19:17:44.431Z,0.05
2018-08-28T19:18:44.735Z,0.00
2018-08-28T19:19:45.725Z,0.00
2018-08-28T19:20:46.048Z,0.00
2018-08-28T19:21:45.290Z,0.00
2018-08-28T19:22:46.879Z,0.00
2018-08-28T19:23:47.455Z,0.00
2018-08-28T19:24:47.803Z,0.00
2018-08-28T19:25:48.231Z,0.00
2018-08-28T19:26:48.630Z,0.00
2018-08-28T19:27:49.573Z,0.00
2018-08-28T19:28:49.896Z,0.00
2018-08-28T19:29:50.384Z,0.00
2018-08-28T19:30:50.688Z,0.00
2018-08-28T19:31:51.037Z,0.00
2018-08-28T19:32:50.504Z,0.00
2018-08-28T19:33:52.220Z,0.00
2018-08-28T19:34:52.451Z,0.00
2018-08-28T19:35:52.875Z,0.00
2018-08-28T19:36:53.695Z,0.00
2018-08-28T19:37:54.573Z,0.00
2018-08-28T19:38:55.330Z,0.00
2018-08-28T19:39:55.932Z,0.00
2018-08-28T19:40:56.411Z,0.00
2018-08-28T19:41:56.935Z,0.00
2018-08-28T19:42:57.414Z,0.00
2018-08-28T19:43:58.235Z,0.00
2018-08-28T19:44:57.240Z,0.00
2018-08-28T19:45:57.767Z,0.00
2018-08-28T19:46:59.444Z,0.00
2018-08-28T19:47:58.678Z,0.00
2018-08-28T19:49:00.191Z,0.00
2018-08-28T19:50:00.862Z,0.00
2018-08-28T19:51:00.214Z,0.00
2018-08-28T19:52:00.335Z,0.00
2018-08-28T19:53:03.592Z,0.00
2018-08-28T19:54:02.039Z,0.00
2018-08-28T19:55:12.893Z,0.00
2018-08-28T19:56:15.191Z,0.00
2018-08-28T19:57:12.136Z,0.00
2018-08-28T19:58:29.962Z,0.00
2018-08-28T20:00:25.768Z,0.00
2018-08-28T20:01:27.111Z,0.00
2018-08-28T20:02:26.428Z,0.00
2018-08-28T20:03:26.876Z,0.00
2018-08-28T20:04:28.802Z,0.00
2018-08-28T20:05:28.634Z,0.00
2018-08-28T20:06:30.002Z,0.00
2018-08-28T20:07:30.264Z,0.00
2018-08-28T20:08:30.642Z,0.00
2018-08-28T20:09:30.767Z,0.00
2018-08-28T20:10:31.066Z,0.00
2018-08-28T20:11:31.385Z,0.00
2018-08-28T20:12:31.817Z,0.00
2018-08-28T20:13:31.199Z,0.00
2018-08-28T20:14:32.914Z,0.00
2018-08-28T20:15:32.213Z,0.00
2018-08-28T20:16:33.856Z,0.00
2018-08-28T20:17:34.527Z,0.00
2018-08-28T20:18:35.041Z,0.00
2018-08-28T20:19:34.738Z,0.00
2018-08-28T20:20:35.323Z,0.00
2018-08-28T20:21:36.110Z,0.00
2018-08-28T20:22:36.889Z,0.00
2018-08-28T20:23:38.722Z,0.00
2018-08-28T20:24:39.180Z,0.00
2018-08-28T20:25:40.797Z,0.00
2018-08-28T20:26:38.719Z,0.00
2018-08-28T20:27:38.953Z,0.00
2018-08-28T20:28:39.306Z,0.00
2018-08-28T20:29:39.383Z,0.00
2018-08-28T20:30:40.336Z,0.00
2018-08-28T20:31:41.053Z,0.00
2018-08-28T20:32:41.533Z,0.00
2018-08-28T20:33:41.885Z,0.00
2018-08-28T20:34:41.894Z,0.00
2018-08-28T20:35:42.396Z,0.00
2018-08-28T20:36:42.855Z,0.00
2018-08-28T20:37:43.149Z,0.00
2018-08-28T20:38:43.677Z,0.00
2018-08-28T20:39:44.454Z,0.00
2018-08-28T20:40:44.726Z,0.00
2018-08-28T20:41:45.908Z,0.00
2018-08-28T20:42:45.594Z,0.00
2018-08-28T20:43:45.727Z,0.00
2018-08-28T20:44:46.494Z,0.00
2018-08-28T20:45:47.117Z,0.00
2018-08-28T20:46:48.415Z,0.00
2018-08-28T20:47:48.731Z,0.00
2018-08-28T20:48:49.324Z,0.00
2018-08-28T20:49:49.348Z,0.00
2018-08-28T20:50:48.885Z,0.00
2018-08-28T20:51:50.311Z,0.00
2018-08-28T20:52:49.616Z,0.00
2018-08-28T20:53:50.571Z,0.00
2018-08-28T20:54:50.999Z,0.00
2018-08-28T20:55:51.571Z,0.00
2018-08-28T20:56:51.814Z,0.00
2018-08-28T20:57:52.231Z,0.00
2018-08-28T20:58:52.712Z,0.00
2018-08-28T20:59:53.501Z,0.00
2018-08-28T21:00:53.855Z,0.00
2018-08-28T21:01:54.294Z,0.00
2018-08-28T21:02:54.470Z,0.00
2018-08-28T21:03:55.085Z,0.00
2018-08-28T21:04:55.806Z,0.00
2018-08-28T21:05:56.372Z,0.00
2018-08-28T21:06:57.453Z,0.00
2018-08-28T21:07:57.451Z,0.00
2018-08-28T21:08:57.768Z,0.00
2018-08-28T21:09:57.789Z,0.00
2018-08-28T21:10:57.817Z,0.00
2018-08-28T21:11:58.591Z,0.00
2018-08-28T21:12:58.917Z,0.00
2018-08-28T21:13:59.373Z,0.00
2018-08-28T21:15:00.003Z,0.00
2018-08-28T21:15:59.998Z,0.00
2018-08-28T21:17:00.625Z,0.00
2018-08-28T21:18:00.996Z,0.00
2018-08-28T21:19:01.561Z,0.00
2018-08-28T21:20:02.246Z,0.00
2018-08-28T21:21:02.960Z,0.00
2018-08-28T21:22:03.032Z,0.00
2018-08-28T21:23:03.794Z,0.00
2018-08-28T21:24:04.557Z,0.00
2018-08-28T21:25:05.804Z,0.00
2018-08-28T21:26:05.776Z,0.00
2018-08-28T21:27:05.736Z,0.00
2018-08-28T21:28:06.556Z,0.00
2018-08-28T21:29:08.155Z,0.00
2018-08-28T21:30:07.874Z,0.00
2018-08-28T21:31:09.683Z,0.00
2018-08-28T21:32:09.216Z,0.00